BCN weather

Barcelona International Airport
Barcelona, Catalonia, Spain

Public forecast

Using degrees Celsius for public forecast. Weather courtesy of forecast.io.

Current aviation weather report (METAR) for Barcelona International Airport

Retrieved 2020/04/01 10:30 UTC (23 minutes ago):

LEBL 011030Z 05019KT 9999 FEW010 BKN012 OVC020 12/10 Q1015 NOSIG

Aviation forecast (TAF) for Barcelona International Airport

Retrieved 2020/04/01 06:27 UTC (4 hours ago):

TAF LEBL 010500Z 0106/0206 06015KT 6000 BKN014 TX15/0112Z TN10/0106Z TEMPO 0106/0120 05015G25KT PROB30 TEMPO 0110/0118 05025G35KT PROB30 TEMPO 0113/0118 3000 TSRA BKN009 FEW020CB BECMG 0122/0124 9999 BKN020